Time;durP1;ratioP1;P1;durP2;ratioP2;P2;SDS_P1;SDS_P2;PMS_P1;PMS_P2;Temp;Humidity;BMP_temperature;BMP_pressure;BME280_temperature;BME280_humidity;BME280_pressure;Samples;Min_cycle;Max_cycle;Signal;HPM_P1;HPM_P2
2023/11/23 00:00:46;;;;;;;5.20;4.20;;;7.80;99.90;;;;;;5033313;28;20202;-74
2023/11/23 00:03:12;;;;;;;5.67;3.90;;;7.90;99.90;;;;;;5032643;28;20667;-74
2023/11/23 00:05:37;;;;;;;5.80;3.80;;;7.90;99.90;;;;;;5033905;28;20177;-74
2023/11/23 00:08:03;;;;;;;4.90;3.80;;;8.00;99.90;;;;;;5040858;28;20170;-74
2023/11/23 00:10:29;;;;;;;6.03;4.23;;;8.10;99.90;;;;;;5031886;28;20192;-74
2023/11/23 00:12:54;;;;;;;5.57;3.70;;;8.10;99.90;;;;;;5030550;28;20585;-74
2023/11/23 00:15:20;;;;;;;5.80;3.87;;;8.20;99.90;;;;;;5028723;28;20204;-74
2023/11/23 00:17:47;;;;;;;5.60;4.23;;;8.20;99.90;;;;;;5036220;28;20214;-74
2023/11/23 00:20:12;;;;;;;6.45;4.80;;;8.30;99.90;;;;;;5030653;28;20605;-74
2023/11/23 00:22:38;;;;;;;6.50;3.90;;;8.40;99.90;;;;;;5033348;28;20184;-74
2023/11/23 00:25:04;;;;;;;7.80;3.93;;;8.40;99.90;;;;;;5035023;28;20205;-74
2023/11/23 00:27:32;;;;;;;4.88;3.50;;;8.50;99.90;;;;;;5039752;28;20189;-74
2023/11/23 00:29:57;;;;;;;4.97;4.10;;;8.60;99.90;;;;;;5022459;28;20193;-74
2023/11/23 00:32:23;;;;;;;5.77;4.30;;;8.60;99.90;;;;;;5034806;28;20224;-74
2023/11/23 00:34:50;;;;;;;6.50;4.30;;;8.70;99.90;;;;;;5036702;28;20585;-74
2023/11/23 00:37:16;;;;;;;6.93;3.92;;;8.70;99.90;;;;;;5031077;28;20292;-74
2023/11/23 00:39:42;;;;;;;4.90;4.00;;;8.80;99.90;;;;;;5032381;28;20295;-74
2023/11/23 00:42:08;;;;;;;4.57;3.40;;;8.80;99.90;;;;;;5032784;28;20580;-74
2023/11/23 00:44:34;;;;;;;6.77;3.93;;;8.90;99.90;;;;;;5033467;28;20245;-74
2023/11/23 00:47:00;;;;;;;7.43;4.97;;;8.90;99.90;;;;;;5047909;28;20571;-74
2023/11/23 00:49:27;;;;;;;7.07;4.38;;;9.00;99.90;;;;;;5017700;28;20636;-74
2023/11/23 00:51:52;;;;;;;7.82;3.30;;;9.00;99.90;;;;;;5038717;28;20232;-74
2023/11/23 00:54:20;;;;;;;5.57;4.10;;;9.00;99.90;;;;;;5032133;28;20217;-74
2023/11/23 00:56:46;;;;;;;5.47;3.35;;;9.10;99.90;;;;;;5019026;28;20173;-74
2023/11/23 00:59:11;;;;;;;5.20;3.75;;;9.10;99.90;;;;;;5032306;28;20225;-74
2023/11/23 01:01:37;;;;;;;7.00;4.37;;;9.10;99.90;;;;;;5032143;28;20220;-74
2023/11/23 01:04:05;;;;;;;7.70;4.33;;;9.10;99.90;;;;;;5031863;28;20216;-74
2023/11/23 01:06:30;;;;;;;5.55;3.60;;;9.10;99.90;;;;;;5031919;28;20585;-74
2023/11/23 01:08:56;;;;;;;6.60;4.17;;;9.10;99.90;;;;;;5037466;28;20736;-74
2023/11/23 01:11:23;;;;;;;4.40;3.57;;;9.20;99.90;;;;;;5026590;28;20182;-74
2023/11/23 01:13:50;;;;;;;5.22;3.40;;;9.20;99.90;;;;;;5015264;28;20257;-74
2023/11/23 01:16:15;;;;;;;5.88;3.60;;;9.20;99.90;;;;;;5021506;28;20184;-74
2023/11/23 01:18:42;;;;;;;4.80;3.27;;;9.30;99.90;;;;;;5031516;28;20205;-74
2023/11/23 01:21:08;;;;;;;5.72;3.88;;;9.30;99.90;;;;;;5033416;28;20538;-74
2023/11/23 01:23:33;;;;;;;7.88;3.72;;;9.30;99.90;;;;;;5031386;28;20299;-74
2023/11/23 01:25:59;;;;;;;4.43;3.13;;;9.30;99.90;;;;;;5015313;28;20184;-74
2023/11/23 01:28:25;;;;;;;5.53;3.40;;;9.40;99.90;;;;;;5032779;28;20221;-74
2023/11/23 01:30:50;;;;;;;5.10;3.50;;;9.40;99.90;;;;;;5031846;28;20188;-74
2023/11/23 01:33:17;;;;;;;6.10;3.73;;;9.50;99.90;;;;;;5024199;28;20182;-74
2023/11/23 01:35:43;;;;;;;5.72;4.10;;;9.50;99.90;;;;;;5032654;28;20568;-74
2023/11/23 01:38:09;;;;;;;7.27;4.50;;;9.60;99.90;;;;;;5040605;28;20172;-74
2023/11/23 01:40:34;;;;;;;9.57;4.97;;;9.60;99.90;;;;;;5034414;28;20189;-74
2023/11/23 01:43:10;;;;;;;9.50;4.80;;;9.60;99.90;;;;;;5031509;28;20889;-74
2023/11/23 01:45:36;;;;;;;6.13;3.80;;;9.70;99.90;;;;;;5014824;28;20177;-74
2023/11/23 01:48:03;;;;;;;6.07;4.40;;;9.70;99.90;;;;;;5031235;28;20174;-74
2023/11/23 01:50:34;;;;;;;8.20;4.45;;;9.70;99.90;;;;;;5031430;28;20204;-73
2023/11/23 01:53:00;;;;;;;4.63;3.50;;;9.80;99.90;;;;;;5031347;28;20264;-74
2023/11/23 01:55:26;;;;;;;7.35;4.05;;;9.80;99.90;;;;;;5039623;28;20174;-74
2023/11/23 01:57:54;;;;;;;9.53;4.80;;;9.80;99.90;;;;;;5014631;28;20174;-74
2023/11/23 02:00:24;;;;;;;7.50;3.90;;;9.90;99.90;;;;;;5014647;28;20622;-74
2023/11/23 02:02:51;;;;;;;8.82;5.32;;;9.90;99.90;;;;;;5014691;28;20546;-74
2023/11/23 02:05:16;;;;;;;6.68;4.47;;;9.90;99.90;;;;;;5030974;28;20268;-74
2023/11/23 02:07:42;;;;;;;5.83;4.10;;;9.90;99.90;;;;;;5031926;28;20297;-74
2023/11/23 02:10:08;;;;;;;4.80;4.20;;;9.90;99.90;;;;;;5035757;28;20204;-74
2023/11/23 02:12:35;;;;;;;10.73;5.00;;;10.00;99.90;;;;;;5031230;28;20537;-74
2023/11/23 02:15:02;;;;;;;9.52;5.20;;;10.00;99.90;;;;;;5014267;28;20200;-74
2023/11/23 02:17:30;;;;;;;7.97;4.70;;;10.00;99.90;;;;;;5031347;28;20193;-74
2023/11/23 02:19:57;;;;;;;7.72;4.10;;;10.00;99.90;;;;;;5065938;28;20273;-74
2023/11/23 02:22:23;;;;;;;9.30;5.88;;;10.10;99.90;;;;;;5001300;28;21014;-74
2023/11/23 02:24:49;;;;;;;9.20;4.50;;;10.10;99.90;;;;;;5030458;28;20201;-74
2023/11/23 02:27:15;;;;;;;7.77;4.60;;;10.10;99.90;;;;;;5036992;28;20197;-74
2023/11/23 02:29:40;;;;;;;6.67;4.90;;;10.10;99.90;;;;;;5016407;28;20202;-74
2023/11/23 02:32:08;;;;;;;8.53;5.10;;;10.20;99.90;;;;;;5048011;28;20551;-74
2023/11/23 02:34:35;;;;;;;7.68;5.13;;;10.20;99.90;;;;;;5033497;28;20582;-73
2023/11/23 02:37:01;;;;;;;9.23;5.15;;;10.20;99.90;;;;;;5036894;28;20194;-73
2023/11/23 02:39:27;;;;;;;6.85;5.25;;;10.20;99.90;;;;;;5013674;28;20238;-73
2023/11/23 02:41:54;;;;;;;9.15;5.03;;;10.20;99.90;;;;;;4997487;28;20606;-73
2023/11/23 02:44:20;;;;;;;6.07;5.07;;;10.20;99.90;;;;;;5030096;28;20205;-73
2023/11/23 02:46:45;;;;;;;6.60;4.50;;;10.20;99.90;;;;;;5013490;28;20754;-73
2023/11/23 02:49:11;;;;;;;10.80;5.97;;;10.20;99.90;;;;;;5029573;28;20195;-73
2023/11/23 02:51:37;;;;;;;7.80;4.87;;;10.20;99.90;;;;;;5021160;28;20238;-74
2023/11/23 02:54:03;;;;;;;5.73;4.77;;;10.20;99.90;;;;;;5049953;28;20641;-74
2023/11/23 02:56:29;;;;;;;8.02;5.57;;;10.20;99.90;;;;;;5019024;28;20223;-74
2023/11/23 02:58:55;;;;;;;10.33;5.70;;;10.20;99.90;;;;;;5033575;28;20705;-74
2023/11/23 03:01:21;;;;;;;7.70;5.80;;;10.30;99.90;;;;;;5030075;28;20935;-74
2023/11/23 03:03:48;;;;;;;6.63;5.03;;;10.20;99.90;;;;;;5013142;28;20315;-74
2023/11/23 03:06:14;;;;;;;6.57;5.03;;;10.30;99.90;;;;;;5013708;28;20176;-74
2023/11/23 03:08:40;;;;;;;7.68;5.80;;;10.30;99.90;;;;;;5013101;28;20236;-74
2023/11/23 03:11:06;;;;;;;8.07;5.20;;;10.30;99.90;;;;;;5029951;28;20217;-74
2023/11/23 03:13:32;;;;;;;10.38;7.20;;;10.30;99.90;;;;;;5013073;28;21064;-74
2023/11/23 03:15:57;;;;;;;7.27;5.40;;;10.30;99.90;;;;;;5043562;28;20193;-74
2023/11/23 03:18:23;;;;;;;10.00;5.30;;;10.30;99.90;;;;;;5029575;28;20250;-74
2023/11/23 03:20:49;;;;;;;8.30;5.70;;;10.30;99.90;;;;;;5030962;28;20522;-74
2023/11/23 03:23:14;;;;;;;6.50;5.10;;;10.40;99.90;;;;;;5029592;28;20205;-73
2023/11/23 03:25:40;;;;;;;16.37;5.80;;;10.40;99.90;;;;;;5031140;28;20631;-73
2023/11/23 03:28:07;;;;;;;11.70;6.40;;;10.40;99.90;;;;;;5018494;28;20212;-73
2023/11/23 03:30:34;;;;;;;5.63;4.82;;;10.40;99.90;;;;;;5051398;28;20180;-73
2023/11/23 03:33:01;;;;;;;9.45;6.10;;;10.40;99.90;;;;;;5029770;28;20166;-73
2023/11/23 03:35:27;;;;;;;6.63;5.87;;;10.50;99.90;;;;;;5029302;28;20183;-73
2023/11/23 03:37:52;;;;;;;7.17;5.53;;;10.50;99.90;;;;;;5012801;28;20201;-73
2023/11/23 03:40:18;;;;;;;5.87;5.27;;;10.50;99.90;;;;;;5032053;28;20632;-73
2023/11/23 03:42:44;;;;;;;5.97;5.20;;;10.50;99.90;;;;;;5014058;28;20705;-73
2023/11/23 03:45:10;;;;;;;9.10;6.10;;;10.60;99.90;;;;;;5029259;28;20201;-74
2023/11/23 03:47:35;;;;;;;6.72;5.95;;;10.60;99.90;;;;;;5029225;28;20623;-73
2023/11/23 03:50:01;;;;;;;9.00;5.43;;;10.60;99.90;;;;;;5029376;28;20255;-73
2023/11/23 03:52:27;;;;;;;7.37;5.30;;;10.60;99.90;;;;;;5037794;28;20189;-73
2023/11/23 03:54:53;;;;;;;8.47;5.87;;;10.70;99.90;;;;;;5038483;28;20173;-73
2023/11/23 03:57:18;;;;;;;7.33;5.80;;;10.70;99.90;;;;;;5014482;28;20174;-72
2023/11/23 03:59:45;;;;;;;6.70;5.27;;;10.70;99.90;;;;;;5050354;28;20611;-73
2023/11/23 04:02:10;;;;;;;7.55;5.35;;;10.70;99.90;;;;;;5070355;28;20177;-73
2023/11/23 04:04:38;;;;;;;8.60;5.80;;;10.80;99.90;;;;;;5053054;28;20244;-73
2023/11/23 04:07:03;;;;;;;9.77;6.18;;;10.80;99.90;;;;;;5056421;28;20180;-73
2023/11/23 04:09:30;;;;;;;7.30;5.57;;;10.80;99.90;;;;;;5072269;28;20201;-73
2023/11/23 04:11:55;;;;;;;10.30;6.53;;;10.80;99.90;;;;;;5054586;28;20227;-73
2023/11/23 04:14:21;;;;;;;8.37;6.27;;;10.80;99.90;;;;;;5069582;28;20172;-73
2023/11/23 04:16:46;;;;;;;10.10;6.30;;;10.90;99.90;;;;;;5069794;28;20657;-73
2023/11/23 04:19:12;;;;;;;7.50;5.60;;;10.90;99.90;;;;;;5047320;28;20193;-73
2023/11/23 04:21:38;;;;;;;6.23;4.83;;;10.90;99.90;;;;;;5052194;28;20173;-73
2023/11/23 04:24:04;;;;;;;11.63;6.27;;;10.90;99.90;;;;;;5069498;28;20208;-73
2023/11/23 04:26:31;;;;;;;11.03;6.27;;;10.90;99.90;;;;;;5056600;28;20189;-73
2023/11/23 04:28:57;;;;;;;8.85;6.28;;;11.00;99.90;;;;;;5052861;28;20619;-73
2023/11/23 04:31:26;;;;;;;10.57;5.77;;;11.00;99.90;;;;;;5069554;28;20231;-73
2023/11/23 04:33:51;;;;;;;8.15;6.57;;;11.00;99.90;;;;;;5053748;28;20173;-73
2023/11/23 04:36:17;;;;;;;8.13;6.67;;;11.00;99.90;;;;;;5060873;28;20250;-73
2023/11/23 04:38:43;;;;;;;10.67;7.03;;;11.00;99.90;;;;;;5068903;28;20240;-73
2023/11/23 04:41:09;;;;;;;9.80;6.17;;;11.00;99.90;;;;;;5054020;28;20177;-73
2023/11/23 04:43:34;;;;;;;9.17;7.23;;;11.00;99.90;;;;;;5069003;28;21012;-73
2023/11/23 04:46:00;;;;;;;11.00;7.30;;;11.10;99.90;;;;;;5052644;28;20658;-73
2023/11/23 04:48:26;;;;;;;9.88;7.53;;;11.10;99.90;;;;;;5069125;28;21016;-73
2023/11/23 04:50:52;;;;;;;7.20;6.20;;;11.10;99.90;;;;;;5061748;28;20176;-73
2023/11/23 04:53:17;;;;;;;8.00;7.20;;;11.10;99.90;;;;;;5053440;28;20307;-73
2023/11/23 04:55:43;;;;;;;7.60;6.80;;;11.10;99.90;;;;;;5070726;28;20187;-73
2023/11/23 04:58:09;;;;;;;11.23;7.47;;;11.20;99.90;;;;;;5052276;28;20204;-73
2023/11/23 05:00:35;;;;;;;10.23;7.47;;;11.20;99.90;;;;;;5053471;28;20177;-73
2023/11/23 05:03:01;;;;;;;11.45;8.02;;;11.20;99.90;;;;;;5069120;28;20215;-73
2023/11/23 05:05:27;;;;;;;11.55;7.07;;;11.20;99.90;;;;;;5068420;28;20613;-73
2023/11/23 05:07:53;;;;;;;9.83;7.83;;;11.20;99.90;;;;;;5068651;28;20260;-73
2023/11/23 05:10:20;;;;;;;9.07;6.70;;;11.20;99.90;;;;;;5053105;28;20197;-73
2023/11/23 05:12:45;;;;;;;8.95;7.15;;;11.20;99.90;;;;;;5052674;28;20194;-73
2023/11/23 05:15:11;;;;;;;11.43;7.57;;;11.20;99.90;;;;;;5046981;28;20181;-73
2023/11/23 05:17:37;;;;;;;9.90;8.33;;;11.20;99.90;;;;;;5052029;28;20220;-73
2023/11/23 05:20:04;;;;;;;9.77;8.20;;;11.30;99.90;;;;;;5053182;28;20201;-74
2023/11/23 05:22:29;;;;;;;9.95;6.97;;;11.30;99.90;;;;;;5035194;28;20177;-74
2023/11/23 05:24:56;;;;;;;10.40;7.80;;;11.30;99.90;;;;;;5068183;28;20208;-73
2023/11/23 05:27:21;;;;;;;9.95;8.35;;;11.30;99.90;;;;;;5051832;28;20181;-73
2023/11/23 05:29:47;;;;;;;11.90;8.30;;;11.30;99.90;;;;;;5052903;28;20250;-73
2023/11/23 05:32:13;;;;;;;10.10;8.10;;;11.30;99.90;;;;;;5068494;28;20276;-74
2023/11/23 05:34:39;;;;;;;9.27;8.37;;;11.30;99.90;;;;;;5034778;28;20184;-74
2023/11/23 05:37:04;;;;;;;8.90;8.00;;;11.30;99.90;;;;;;5052939;28;20220;-73
2023/11/23 05:39:30;;;;;;;8.73;7.83;;;11.40;99.90;;;;;;5067417;28;20291;-73
2023/11/23 05:41:55;;;;;;;9.67;7.73;;;11.40;99.90;;;;;;5068498;28;20529;-73
2023/11/23 05:44:21;;;;;;;11.40;8.17;;;11.40;99.90;;;;;;5051459;28;20226;-73
2023/11/23 05:46:47;;;;;;;10.60;7.97;;;11.40;99.90;;;;;;5051436;28;20287;-73
2023/11/23 05:49:13;;;;;;;11.90;7.47;;;11.40;99.90;;;;;;5062741;28;20184;-73
2023/11/23 05:51:39;;;;;;;11.52;8.32;;;11.40;99.90;;;;;;5031567;28;20177;-73
2023/11/23 05:54:05;;;;;;;11.33;8.60;;;11.40;99.90;;;;;;5080630;22;20204;-74
2023/11/23 05:56:31;;;;;;;11.20;8.43;;;11.40;99.90;;;;;;5058509;28;20594;-75
2023/11/23 05:58:57;;;;;;;10.43;7.40;;;11.40;99.90;;;;;;5066080;28;20175;-75
2023/11/23 06:01:22;;;;;;;8.73;7.83;;;11.40;99.90;;;;;;5075496;28;20180;-74
2023/11/23 06:03:49;;;;;;;9.97;8.00;;;11.40;99.90;;;;;;5054545;28;21017;-74
2023/11/23 06:06:22;;;;;;;12.07;8.93;;;11.40;99.90;;;;;;5072405;28;20176;-74
2023/11/23 06:08:49;;;;;;;10.90;8.07;;;11.40;99.90;;;;;;5062255;28;20173;-74
2023/11/23 06:11:16;;;;;;;10.07;8.57;;;11.40;99.90;;;;;;5056656;28;20180;-74
2023/11/23 06:13:48;;;;;;;9.98;8.88;;;11.40;99.90;;;;;;5061891;28;20173;-75
2023/11/23 06:16:14;;;;;;;9.48;8.57;;;11.40;99.90;;;;;;5064776;28;20540;-75
2023/11/23 06:18:41;;;;;;;9.82;8.10;;;11.50;99.90;;;;;;5063970;28;20173;-74
2023/11/23 06:21:07;;;;;;;12.05;8.25;;;11.40;99.90;;;;;;5063642;28;20214;-74
2023/11/23 06:23:33;;;;;;;11.02;9.07;;;11.50;99.90;;;;;;5069246;28;20199;-75
2023/11/23 06:25:59;;;;;;;9.63;8.63;;;11.40;99.90;;;;;;5071335;28;20177;-75
2023/11/23 06:28:25;;;;;;;12.60;9.57;;;11.50;99.90;;;;;;5070643;28;20177;-75
2023/11/23 06:30:51;;;;;;;12.60;10.23;;;11.50;99.90;;;;;;5052468;28;20235;-75
2023/11/23 06:33:17;;;;;;;11.45;9.75;;;11.50;99.90;;;;;;5060139;28;20504;-75
2023/11/23 06:35:43;;;;;;;13.32;9.63;;;11.50;99.90;;;;;;5060272;28;20258;-75
2023/11/23 06:38:09;;;;;;;9.40;7.53;;;11.50;99.90;;;;;;5065983;28;20173;-75
2023/11/23 06:40:35;;;;;;;9.90;7.80;;;11.50;99.90;;;;;;5067950;28;20565;-74
2023/11/23 06:43:02;;;;;;;9.57;8.57;;;11.50;99.90;;;;;;5063229;28;20578;-75
2023/11/23 06:45:28;;;;;;;10.10;8.98;;;11.50;99.90;;;;;;5063173;28;20189;-75
2023/11/23 06:47:53;;;;;;;11.10;9.13;;;11.50;99.90;;;;;;5070105;28;20539;-76
2023/11/23 06:50:20;;;;;;;10.40;8.37;;;11.50;99.90;;;;;;5069911;28;20191;-75
2023/11/23 06:52:46;;;;;;;9.98;9.00;;;11.50;99.90;;;;;;5078954;28;20177;-76
2023/11/23 06:55:14;;;;;;;14.25;9.45;;;11.50;99.90;;;;;;5067095;28;20213;-75
2023/11/23 06:57:46;;;;;;;11.70;8.32;;;11.50;99.90;;;;;;5058334;28;20547;-75
2023/11/23 07:00:22;;;;;;;10.70;9.60;;;11.50;99.90;;;;;;5057326;28;20172;-75
2023/11/23 07:02:52;;;;;;;12.00;10.68;;;11.60;99.90;;;;;;5067593;28;20301;-75
2023/11/23 07:05:19;;;;;;;11.05;8.98;;;11.60;99.90;;;;;;5061826;28;20212;-75
2023/11/23 07:07:47;;;;;;;10.70;9.10;;;11.60;99.90;;;;;;5058027;28;20242;-75
2023/11/23 07:10:13;;;;;;;10.82;9.50;;;11.60;99.90;;;;;;5068620;28;20164;-75
2023/11/23 07:12:40;;;;;;;12.27;9.02;;;11.70;99.90;;;;;;5053477;28;20192;-75
2023/11/23 07:15:07;;;;;;;10.38;8.93;;;11.60;99.90;;;;;;5044521;28;20234;-75
2023/11/23 07:17:33;;;;;;;11.93;9.80;;;11.70;99.90;;;;;;5070906;28;20271;-75
2023/11/23 07:19:58;;;;;;;10.60;8.17;;;11.70;99.90;;;;;;5061370;28;20345;-75
2023/11/23 07:22:24;;;;;;;11.33;9.40;;;11.70;99.90;;;;;;5070581;28;20582;-75
2023/11/23 07:24:50;;;;;;;11.20;9.07;;;11.70;99.90;;;;;;5061501;28;20212;-76
2023/11/23 07:27:16;;;;;;;11.10;9.13;;;11.70;99.90;;;;;;5055921;28;20230;-75
2023/11/23 07:29:41;;;;;;;9.50;8.50;;;11.80;99.90;;;;;;5056943;28;21237;-75
2023/11/23 07:32:10;;;;;;;14.20;9.40;;;11.80;99.90;;;;;;5067435;28;20613;-75
2023/11/23 07:34:37;;;;;;;10.02;9.02;;;11.80;99.90;;;;;;5066119;28;20193;-74
2023/11/23 07:37:03;;;;;;;12.97;10.30;;;11.90;99.90;;;;;;5068803;28;20200;-75
2023/11/23 07:39:29;;;;;;;11.68;9.40;;;11.80;99.90;;;;;;5091971;28;20596;-75
2023/11/23 07:41:55;;;;;;;8.90;8.00;;;11.90;99.90;;;;;;5071816;28;20643;-76
2023/11/23 07:44:20;;;;;;;10.13;8.40;;;11.90;99.90;;;;;;5070374;28;20235;-76
2023/11/23 07:46:47;;;;;;;10.07;8.43;;;11.90;99.90;;;;;;5063351;28;20625;-77
2023/11/23 07:49:14;;;;;;;11.53;8.63;;;11.90;99.90;;;;;;5056939;28;20622;-76
2023/11/23 07:51:40;;;;;;;10.27;9.23;;;12.00;99.90;;;;;;5066615;28;20545;-76
2023/11/23 07:54:06;;;;;;;9.10;8.13;;;12.00;99.90;;;;;;5073380;28;20210;-77
2023/11/23 07:56:34;;;;;;;10.47;9.03;;;12.00;99.90;;;;;;5069147;28;20207;-76
2023/11/23 07:59:00;;;;;;;10.85;9.75;;;12.10;99.90;;;;;;5069359;28;20184;-76
2023/11/23 08:01:26;;;;;;;10.90;9.63;;;12.10;99.90;;;;;;5077782;28;20297;-76
2023/11/23 08:03:51;;;;;;;9.60;8.30;;;12.10;99.90;;;;;;5052102;28;20278;-76
2023/11/23 08:06:18;;;;;;;13.13;10.30;;;12.10;99.90;;;;;;5064055;28;20172;-76
2023/11/23 08:08:43;;;;;;;10.00;8.53;;;12.20;99.90;;;;;;5063259;28;20603;-76
2023/11/23 08:11:09;;;;;;;11.87;9.00;;;12.20;99.90;;;;;;5069376;28;20605;-77
2023/11/23 08:13:35;;;;;;;10.90;8.50;;;12.30;99.90;;;;;;5053287;28;20181;-76
2023/11/23 08:16:04;;;;;;;11.47;8.77;;;12.30;99.90;;;;;;5066898;28;20612;-76
2023/11/23 08:18:30;;;;;;;10.23;9.10;;;12.40;99.90;;;;;;5059475;28;20587;-76
2023/11/23 08:20:58;;;;;;;10.30;8.70;;;12.40;99.90;;;;;;5059983;28;20681;-76
2023/11/23 08:23:25;;;;;;;12.77;9.17;;;12.40;99.90;;;;;;5063991;28;20631;-76
2023/11/23 08:25:55;;;;;;;10.47;8.40;;;12.50;99.90;;;;;;5060700;28;20620;-76
2023/11/23 08:28:21;;;;;;;10.80;8.30;;;12.50;99.90;;;;;;5058772;28;20599;-77
2023/11/23 08:30:49;;;;;;;11.27;9.27;;;12.50;99.90;;;;;;5059274;28;20597;-77
2023/11/23 08:33:15;;;;;;;11.93;9.13;;;12.60;99.90;;;;;;5062483;28;20196;-77
2023/11/23 08:35:41;;;;;;;11.83;9.67;;;12.60;99.90;;;;;;5052756;28;20646;-77
2023/11/23 08:38:07;;;;;;;12.97;10.90;;;12.60;99.90;;;;;;5068877;28;20172;-77
2023/11/23 08:40:33;;;;;;;12.33;8.70;;;12.60;99.90;;;;;;5045729;28;20580;-76
2023/11/23 08:42:58;;;;;;;11.83;9.57;;;12.70;99.90;;;;;;5068426;28;20176;-77
2023/11/23 08:45:24;;;;;;;11.03;8.07;;;12.70;99.90;;;;;;5070616;28;20219;-77
2023/11/23 08:47:50;;;;;;;13.23;9.47;;;12.70;99.90;;;;;;5063343;28;20230;-77
2023/11/23 08:50:17;;;;;;;11.77;8.80;;;12.70;99.90;;;;;;5073608;28;20622;-77
2023/11/23 08:52:43;;;;;;;9.60;8.47;;;12.80;99.90;;;;;;5064061;28;20598;-77
2023/11/23 08:55:09;;;;;;;16.17;10.27;;;12.80;99.90;;;;;;5071858;28;20634;-77
2023/11/23 08:57:36;;;;;;;10.67;8.57;;;12.80;99.90;;;;;;5073539;28;21433;-77
2023/11/23 09:00:16;;;;;;;12.67;9.20;;;12.80;99.90;;;;;;5072247;28;20599;-77
2023/11/23 09:02:43;;;;;;;12.27;10.07;;;12.90;99.90;;;;;;5039606;28;20598;-77
2023/11/23 09:05:09;;;;;;;13.97;11.00;;;12.90;99.90;;;;;;5072955;28;20976;-77
2023/11/23 09:07:35;;;;;;;10.07;9.03;;;12.90;99.90;;;;;;5073528;28;20589;-77
2023/11/23 09:10:00;;;;;;;10.40;9.17;;;12.90;99.90;;;;;;5073473;28;20181;-77
2023/11/23 09:12:32;;;;;;;11.70;10.23;;;12.90;99.90;;;;;;5072211;28;20259;-77
2023/11/23 09:14:58;;;;;;;12.83;8.73;;;13.00;99.90;;;;;;5061733;28;21129;-77
2023/11/23 09:17:23;;;;;;;10.30;8.63;;;13.00;99.90;;;;;;5067099;28;20674;-77
2023/11/23 09:19:49;;;;;;;14.83;10.90;;;13.10;99.90;;;;;;5073401;28;20592;-77
2023/11/23 09:22:15;;;;;;;10.80;8.53;;;13.10;99.90;;;;;;5074252;28;20630;-77
2023/11/23 09:24:41;;;;;;;10.13;8.43;;;13.10;99.90;;;;;;5068039;28;20212;-77
2023/11/23 09:27:07;;;;;;;11.00;8.57;;;13.10;99.90;;;;;;5064895;28;20180;-77
2023/11/23 09:29:32;;;;;;;13.13;9.40;;;13.10;99.90;;;;;;5073317;28;20566;-77
2023/11/23 09:31:58;;;;;;;9.77;8.77;;;13.20;99.90;;;;;;5071712;28;20275;-77
2023/11/23 09:34:24;;;;;;;9.70;8.57;;;13.20;99.90;;;;;;5072308;28;20196;-77
2023/11/23 09:36:50;;;;;;;11.87;7.97;;;13.20;99.90;;;;;;5072713;28;20635;-77
2023/11/23 09:39:17;;;;;;;9.33;8.40;;;13.30;99.90;;;;;;5067506;28;20635;-77
2023/11/23 09:41:44;;;;;;;9.13;7.90;;;13.30;99.90;;;;;;5084426;28;20637;-77
2023/11/23 09:44:10;;;;;;;9.20;8.30;;;13.30;99.90;;;;;;5071084;28;20667;-77
2023/11/23 09:46:39;;;;;;;9.23;8.10;;;13.30;99.90;;;;;;5039915;28;20583;-77
2023/11/23 09:49:07;;;;;;;8.13;7.20;;;13.40;99.90;;;;;;5059706;28;20583;-77
2023/11/23 09:51:35;;;;;;;8.90;7.37;;;13.40;99.90;;;;;;5082694;28;20579;-77
2023/11/23 09:54:03;;;;;;;8.13;7.27;;;13.40;99.90;;;;;;5052115;28;21345;-77
2023/11/23 09:56:29;;;;;;;11.93;7.87;;;13.40;99.90;;;;;;5040582;28;20582;-77
2023/11/23 09:58:55;;;;;;;8.53;6.97;;;13.50;99.90;;;;;;5063764;28;20584;-77
2023/11/23 10:01:25;;;;;;;8.87;7.90;;;13.50;99.90;;;;;;5052251;28;20591;-77
2023/11/23 10:03:54;;;;;;;8.73;7.27;;;13.50;99.90;;;;;;5059822;28;20789;-77
2023/11/23 10:06:20;;;;;;;7.73;6.87;;;13.50;99.90;;;;;;5055495;28;20589;-78
2023/11/23 10:08:47;;;;;;;9.33;8.43;;;13.60;99.90;;;;;;5038439;28;20641;-77
2023/11/23 10:11:13;;;;;;;6.83;6.07;;;13.60;99.90;;;;;;5059612;28;20707;-77
2023/11/23 10:13:39;;;;;;;7.93;7.10;;;13.60;99.90;;;;;;5067510;28;20587;-78
2023/11/23 10:16:05;;;;;;;8.10;6.70;;;13.60;99.90;;;;;;5070235;28;20601;-77
2023/11/23 10:18:42;;;;;;;10.03;8.23;;;13.70;99.90;;;;;;5066079;28;20192;-77
2023/11/23 10:21:11;;;;;;;9.17;7.50;;;13.70;99.90;;;;;;5062319;28;20591;-78
2023/11/23 10:23:41;;;;;;;8.23;7.13;;;13.70;99.90;;;;;;5058515;28;21402;-77
2023/11/23 10:26:10;;;;;;;9.00;6.93;;;13.80;99.90;;;;;;5071684;28;20586;-77
2023/11/23 10:28:41;;;;;;;8.47;7.57;;;13.80;99.90;;;;;;5088208;28;20583;-77
2023/11/23 10:31:07;;;;;;;7.30;6.60;;;13.90;99.90;;;;;;5062043;28;20576;-77
2023/11/23 10:33:36;;;;;;;9.67;6.37;;;13.90;99.90;;;;;;5048457;28;20598;-77
2023/11/23 10:36:06;;;;;;;8.80;6.17;;;13.90;99.90;;;;;;5067779;28;20618;-78
2023/11/23 10:38:40;;;;;;;7.53;5.30;;;13.90;99.90;;;;;;5042870;28;20592;-77
2023/11/23 10:41:07;;;;;;;6.77;5.40;;;13.90;99.90;;;;;;5063151;28;21063;-77
2023/11/23 10:43:37;;;;;;;12.50;6.37;;;13.90;99.90;;;;;;5025303;28;20774;-77
2023/11/23 10:46:11;;;;;;;7.90;6.70;;;13.90;99.90;;;;;;5067634;28;20578;-78
2023/11/23 10:48:38;;;;;;;6.40;5.67;;;13.90;99.90;;;;;;5058618;28;20703;-77
2023/11/23 10:51:07;;;;;;;9.17;6.00;;;13.90;99.90;;;;;;5071213;28;20574;-77
2023/11/23 10:53:33;;;;;;;7.97;6.63;;;13.90;99.90;;;;;;5061804;28;20582;-77
2023/11/23 10:56:14;;;;;;;10.17;5.93;;;13.80;99.90;;;;;;5088119;28;20755;-78
2023/11/23 10:58:43;;;;;;;7.00;5.43;;;13.90;99.90;;;;;;5072243;28;20972;-77
2023/11/23 11:01:10;;;;;;;7.10;5.33;;;13.90;99.90;;;;;;5071630;28;20685;-77
2023/11/23 11:03:40;;;;;;;8.43;6.40;;;13.90;99.90;;;;;;5069566;28;20692;-77
2023/11/23 11:06:11;;;;;;;6.30;5.70;;;13.90;99.90;;;;;;5059690;28;20588;-77
2023/11/23 11:08:44;;;;;;;6.63;5.60;;;13.90;99.90;;;;;;5068866;28;20574;-77
2023/11/23 11:11:15;;;;;;;6.40;5.70;;;13.80;99.90;;;;;;5070227;28;20598;-77
2023/11/23 11:13:44;;;;;;;6.67;5.37;;;13.80;99.90;;;;;;5041373;28;20611;-77
2023/11/23 11:16:15;;;;;;;7.70;5.10;;;13.80;99.90;;;;;;5069223;28;20597;-77
2023/11/23 11:18:50;;;;;;;6.50;4.87;;;13.80;99.90;;;;;;5055858;28;20591;-77
2023/11/23 11:21:18;;;;;;;5.87;4.80;;;13.80;99.90;;;;;;5061586;28;20586;-77
2023/11/23 11:23:46;;;;;;;6.00;4.80;;;13.80;99.90;;;;;;5052953;28;20657;-77
2023/11/23 11:26:25;;;;;;;4.57;3.70;;;13.90;99.90;;;;;;5045266;28;20592;-77
2023/11/23 11:28:59;;;;;;;5.43;4.70;;;13.80;99.90;;;;;;5054367;28;20631;-77
2023/11/23 11:31:33;;;;;;;7.00;5.50;;;13.90;99.90;;;;;;5056613;28;20593;-77
2023/11/23 11:34:12;;;;;;;9.70;7.57;;;13.90;99.90;;;;;;5061967;28;20658;-76
2023/11/23 11:36:38;;;;;;;11.53;8.60;;;13.90;99.90;;;;;;5057434;28;20632;-76
2023/11/23 11:39:05;;;;;;;9.33;6.57;;;13.90;99.90;;;;;;5056605;28;20597;-77
2023/11/23 11:41:36;;;;;;;6.53;5.40;;;14.00;99.90;;;;;;5051932;28;20591;-76
2023/11/23 11:44:05;;;;;;;7.70;5.13;;;14.00;99.90;;;;;;5052687;28;20705;-77
2023/11/23 11:46:34;;;;;;;6.90;4.57;;;14.00;99.90;;;;;;5049149;28;20594;-77
2023/11/23 11:49:00;;;;;;;5.20;3.87;;;14.00;99.90;;;;;;5062930;28;20587;-76
2023/11/23 11:51:33;;;;;;;8.23;4.23;;;14.00;99.90;;;;;;5077181;28;20590;-77
2023/11/23 11:53:59;;;;;;;7.77;4.20;;;14.00;99.90;;;;;;5058845;28;20652;-77
2023/11/23 11:56:25;;;;;;;5.20;4.50;;;14.10;99.90;;;;;;5041344;28;20592;-76
2023/11/23 11:58:52;;;;;;;5.60;4.07;;;14.10;99.90;;;;;;5065337;28;20598;-77
2023/11/23 12:01:18;;;;;;;6.43;4.67;;;14.10;99.90;;;;;;5050920;28;20622;-77
2023/11/23 12:03:49;;;;;;;6.60;4.30;;;14.10;99.90;;;;;;5065061;28;20626;-76
2023/11/23 12:06:17;;;;;;;7.13;4.47;;;14.10;99.90;;;;;;5062569;28;20597;-77
2023/11/23 12:08:45;;;;;;;4.17;3.60;;;14.10;99.90;;;;;;5071585;28;21245;-77
2023/11/23 12:11:28;;;;;;;7.80;5.33;;;14.20;99.90;;;;;;5072684;28;20594;-78
2023/11/23 12:13:55;;;;;;;5.50;3.97;;;14.10;99.90;;;;;;5068680;28;20622;-77
2023/11/23 12:16:32;;;;;;;5.17;4.33;;;14.10;99.90;;;;;;5067889;28;20652;-77
2023/11/23 12:18:58;;;;;;;4.20;3.80;;;14.20;99.90;;;;;;5067834;28;21183;-77
2023/11/23 12:21:24;;;;;;;5.63;4.67;;;14.20;99.90;;;;;;5071671;28;20664;-77
2023/11/23 12:23:52;;;;;;;7.33;4.63;;;14.20;99.90;;;;;;5047655;28;20635;-77
2023/11/23 12:26:19;;;;;;;8.73;6.40;;;14.20;99.90;;;;;;5084347;28;20582;-78
2023/11/23 12:28:48;;;;;;;6.40;4.90;;;14.30;99.90;;;;;;5063806;28;20585;-78
2023/11/23 12:31:14;;;;;;;5.90;3.97;;;14.30;99.90;;;;;;5061297;28;20648;-78
2023/11/23 12:33:40;;;;;;;5.77;4.33;;;14.30;99.90;;;;;;5073753;28;20601;-80
2023/11/23 12:36:06;;;;;;;7.03;5.20;;;14.30;99.90;;;;;;5085514;28;20222;-79
2023/11/23 12:38:32;;;;;;;7.50;5.67;;;14.40;99.90;;;;;;5077576;28;20252;-78
2023/11/23 12:40:57;;;;;;;6.90;5.60;;;14.40;99.90;;;;;;5084058;28;20629;-79
2023/11/23 12:43:23;;;;;;;7.67;4.63;;;14.40;99.90;;;;;;5082726;28;20176;-78